sensor_id;sensor_type;location;lat;lon;timestamp;temperature;humidity
4596;DHT22;2310;49.978;8.742;2023-12-20T00:00:24;7.00;99.90
4596;DHT22;2310;49.978;8.742;2023-12-20T00:04:25;7.10;99.90
4596;DHT22;2310;49.978;8.742;2023-12-20T00:08:27;7.00;99.90
4596;DHT22;2310;49.978;8.742;2023-12-20T00:12:28;7.00;99.90
4596;DHT22;2310;49.978;8.742;2023-12-20T00:16:30;7.00;99.90
4596;DHT22;2310;49.978;8.742;2023-12-20T00:20:33;6.90;99.90
4596;DHT22;2310;49.978;8.742;2023-12-20T00:24:34;7.00;99.90
4596;DHT22;2310;49.978;8.742;2023-12-20T00:28:35;6.90;99.90
4596;DHT22;2310;49.978;8.742;2023-12-20T00:32:38;7.00;99.90
4596;DHT22;2310;49.978;8.742;2023-12-20T00:36:39;7.10;99.90
4596;DHT22;2310;49.978;8.742;2023-12-20T00:40:41;7.10;99.90
4596;DHT22;2310;49.978;8.742;2023-12-20T00:44:42;7.20;99.90
4596;DHT22;2310;49.978;8.742;2023-12-20T00:48:44;7.10;99.90
4596;DHT22;2310;49.978;8.742;2023-12-20T00:52:46;7.20;99.90
4596;DHT22;2310;49.978;8.742;2023-12-20T00:56:48;7.20;99.90
4596;DHT22;2310;49.978;8.742;2023-12-20T01:00:49;7.20;99.90
4596;DHT22;2310;49.978;8.742;2023-12-20T01:04:51;7.10;99.90
4596;DHT22;2310;49.978;8.742;2023-12-20T01:08:52;7.10;99.90
4596;DHT22;2310;49.978;8.742;2023-12-20T01:12:54;7.20;99.90
4596;DHT22;2310;49.978;8.742;2023-12-20T01:16:55;7.20;99.90
4596;DHT22;2310;49.978;8.742;2023-12-20T01:21:02;7.20;99.90
4596;DHT22;2310;49.978;8.742;2023-12-20T01:25:04;7.20;99.90
4596;DHT22;2310;49.978;8.742;2023-12-20T01:29:06;7.20;99.90
4596;DHT22;2310;49.978;8.742;2023-12-20T01:33:07;7.30;99.90
4596;DHT22;2310;49.978;8.742;2023-12-20T01:37:08;7.10;99.90
4596;DHT22;2310;49.978;8.742;2023-12-20T01:41:10;7.20;99.90
4596;DHT22;2310;49.978;8.742;2023-12-20T01:45:12;7.00;99.90
4596;DHT22;2310;49.978;8.742;2023-12-20T01:49:14;7.10;99.90
4596;DHT22;2310;49.978;8.742;2023-12-20T01:53:17;7.00;99.90
4596;DHT22;2310;49.978;8.742;2023-12-20T01:57:20;7.10;99.90
4596;DHT22;2310;49.978;8.742;2023-12-20T02:01:21;7.20;99.90
4596;DHT22;2310;49.978;8.742;2023-12-20T02:05:23;7.20;99.90
4596;DHT22;2310;49.978;8.742;2023-12-20T02:09:27;7.10;99.90
4596;DHT22;2310;49.978;8.742;2023-12-20T02:13:30;7.10;99.90
4596;DHT22;2310;49.978;8.742;2023-12-20T02:17:32;7.00;99.90
4596;DHT22;2310;49.978;8.742;2023-12-20T02:21:34;7.00;99.90
4596;DHT22;2310;49.978;8.742;2023-12-20T02:25:38;7.20;99.90
4596;DHT22;2310;49.978;8.742;2023-12-20T02:29:40;7.10;99.90
4596;DHT22;2310;49.978;8.742;2023-12-20T02:33:41;6.90;99.90
4596;DHT22;2310;49.978;8.742;2023-12-20T02:37:43;7.00;99.90
4596;DHT22;2310;49.978;8.742;2023-12-20T02:41:45;7.20;99.90
4596;DHT22;2310;49.978;8.742;2023-12-20T02:45:46;7.20;99.90
4596;DHT22;2310;49.978;8.742;2023-12-20T02:49:48;7.00;99.90
4596;DHT22;2310;49.978;8.742;2023-12-20T02:53:50;7.00;99.90
4596;DHT22;2310;49.978;8.742;2023-12-20T02:57:51;7.10;99.90
4596;DHT22;2310;49.978;8.742;2023-12-20T03:01:53;7.20;99.90
4596;DHT22;2310;49.978;8.742;2023-12-20T03:05:54;7.20;99.90
4596;DHT22;2310;49.978;8.742;2023-12-20T03:09:56;7.20;99.90
4596;DHT22;2310;49.978;8.742;2023-12-20T03:13:59;6.90;99.90
4596;DHT22;2310;49.978;8.742;2023-12-20T03:18:00;7.10;99.90
4596;DHT22;2310;49.978;8.742;2023-12-20T03:22:03;7.30;99.90
4596;DHT22;2310;49.978;8.742;2023-12-20T03:26:07;7.20;99.90
4596;DHT22;2310;49.978;8.742;2023-12-20T03:30:09;7.20;99.90
4596;DHT22;2310;49.978;8.742;2023-12-20T03:34:11;7.00;99.90
4596;DHT22;2310;49.978;8.742;2023-12-20T03:38:13;7.20;99.90
4596;DHT22;2310;49.978;8.742;2023-12-20T03:42:14;7.30;99.90
4596;DHT22;2310;49.978;8.742;2023-12-20T03:46:15;7.20;99.90
4596;DHT22;2310;49.978;8.742;2023-12-20T03:50:17;7.30;99.90
4596;DHT22;2310;49.978;8.742;2023-12-20T03:54:19;7.30;99.90
4596;DHT22;2310;49.978;8.742;2023-12-20T03:58:20;7.40;99.90
4596;DHT22;2310;49.978;8.742;2023-12-20T04:02:22;7.40;99.90
4596;DHT22;2310;49.978;8.742;2023-12-20T04:06:23;7.30;99.90
4596;DHT22;2310;49.978;8.742;2023-12-20T04:10:25;7.50;99.90
4596;DHT22;2310;49.978;8.742;2023-12-20T04:14:26;7.50;99.90
4596;DHT22;2310;49.978;8.742;2023-12-20T04:18:27;7.60;99.90
4596;DHT22;2310;49.978;8.742;2023-12-20T04:22:30;7.50;99.90
4596;DHT22;2310;49.978;8.742;2023-12-20T04:26:31;7.40;99.90
4596;DHT22;2310;49.978;8.742;2023-12-20T04:30:33;7.30;99.90
4596;DHT22;2310;49.978;8.742;2023-12-20T04:34:35;7.40;99.90
4596;DHT22;2310;49.978;8.742;2023-12-20T04:38:37;7.50;99.90
4596;DHT22;2310;49.978;8.742;2023-12-20T04:42:40;7.60;99.90
4596;DHT22;2310;49.978;8.742;2023-12-20T04:46:42;7.50;99.90
4596;DHT22;2310;49.978;8.742;2023-12-20T04:50:45;7.60;99.90
4596;DHT22;2310;49.978;8.742;2023-12-20T04:54:46;7.70;99.90
4596;DHT22;2310;49.978;8.742;2023-12-20T04:58:47;7.70;99.90
4596;DHT22;2310;49.978;8.742;2023-12-20T05:02:49;7.70;99.90
4596;DHT22;2310;49.978;8.742;2023-12-20T05:06:51;7.60;99.90
4596;DHT22;2310;49.978;8.742;2023-12-20T05:10:55;7.70;99.90
4596;DHT22;2310;49.978;8.742;2023-12-20T05:14:58;7.70;99.90
4596;DHT22;2310;49.978;8.742;2023-12-20T05:18:59;7.70;99.90
4596;DHT22;2310;49.978;8.742;2023-12-20T05:23:02;7.70;99.90
4596;DHT22;2310;49.978;8.742;2023-12-20T05:27:04;7.70;99.90
4596;DHT22;2310;49.978;8.742;2023-12-20T05:31:06;7.70;99.90
4596;DHT22;2310;49.978;8.742;2023-12-20T05:35:08;7.80;99.90
4596;DHT22;2310;49.978;8.742;2023-12-20T05:39:09;7.80;99.90
4596;DHT22;2310;49.978;8.742;2023-12-20T05:43:11;7.60;99.90
4596;DHT22;2310;49.978;8.742;2023-12-20T05:47:12;7.70;99.90
4596;DHT22;2310;49.978;8.742;2023-12-20T05:51:13;7.60;99.90
4596;DHT22;2310;49.978;8.742;2023-12-20T05:55:15;7.60;99.90
4596;DHT22;2310;49.978;8.742;2023-12-20T05:59:17;7.50;99.90
4596;DHT22;2310;49.978;8.742;2023-12-20T06:03:18;7.60;99.90
4596;DHT22;2310;49.978;8.742;2023-12-20T06:07:20;7.60;99.90
4596;DHT22;2310;49.978;8.742;2023-12-20T06:11:21;7.60;99.90
4596;DHT22;2310;49.978;8.742;2023-12-20T06:15:23;7.40;99.90
4596;DHT22;2310;49.978;8.742;2023-12-20T06:19:24;7.10;99.90
4596;DHT22;2310;49.978;8.742;2023-12-20T06:23:26;6.90;99.90
4596;DHT22;2310;49.978;8.742;2023-12-20T06:27:29;7.10;99.90
4596;DHT22;2310;49.978;8.742;2023-12-20T06:31:30;7.20;99.90
4596;DHT22;2310;49.978;8.742;2023-12-20T06:35:33;7.20;99.90
4596;DHT22;2310;49.978;8.742;2023-12-20T06:39:37;7.10;99.90
4596;DHT22;2310;49.978;8.742;2023-12-20T06:43:38;7.10;99.90
4596;DHT22;2310;49.978;8.742;2023-12-20T06:47:41;7.10;99.90
4596;DHT22;2310;49.978;8.742;2023-12-20T06:51:42;7.10;99.90
4596;DHT22;2310;49.978;8.742;2023-12-20T06:55:44;7.10;99.90
4596;DHT22;2310;49.978;8.742;2023-12-20T06:59:45;7.00;99.90
4596;DHT22;2310;49.978;8.742;2023-12-20T07:03:47;6.90;99.90
4596;DHT22;2310;49.978;8.742;2023-12-20T07:07:48;6.90;99.90
4596;DHT22;2310;49.978;8.742;2023-12-20T07:11:50;6.90;99.90
4596;DHT22;2310;49.978;8.742;2023-12-20T07:15:52;6.90;99.90
4596;DHT22;2310;49.978;8.742;2023-12-20T07:19:53;6.80;99.90
4596;DHT22;2310;49.978;8.742;2023-12-20T07:23:55;6.80;99.90
4596;DHT22;2310;49.978;8.742;2023-12-20T07:27:56;6.90;99.90
4596;DHT22;2310;49.978;8.742;2023-12-20T07:31:58;6.90;99.90
4596;DHT22;2310;49.978;8.742;2023-12-20T07:35:59;6.90;99.90
4596;DHT22;2310;49.978;8.742;2023-12-20T07:40:03;6.90;99.90
4596;DHT22;2310;49.978;8.742;2023-12-20T07:44:07;7.00;99.90
4596;DHT22;2310;49.978;8.742;2023-12-20T07:48:08;7.10;99.90
4596;DHT22;2310;49.978;8.742;2023-12-20T07:52:10;7.10;99.90
4596;DHT22;2310;49.978;8.742;2023-12-20T08:00:18;7.00;99.90
4596;DHT22;2310;49.978;8.742;2023-12-20T08:04:20;6.90;99.90
4596;DHT22;2310;49.978;8.742;2023-12-20T08:08:22;7.00;99.90
4596;DHT22;2310;49.978;8.742;2023-12-20T08:12:23;6.80;99.90
4596;DHT22;2310;49.978;8.742;2023-12-20T08:16:27;6.80;99.90
4596;DHT22;2310;49.978;8.742;2023-12-20T08:20:28;6.90;99.90
4596;DHT22;2310;49.978;8.742;2023-12-20T08:24:31;7.00;99.90
4596;DHT22;2310;49.978;8.742;2023-12-20T08:28:33;7.10;99.90
4596;DHT22;2310;49.978;8.742;2023-12-20T08:32:35;7.10;99.90
4596;DHT22;2310;49.978;8.742;2023-12-20T08:36:36;7.10;99.90
4596;DHT22;2310;49.978;8.742;2023-12-20T08:40:37;7.10;99.90
4596;DHT22;2310;49.978;8.742;2023-12-20T08:44:39;7.30;99.90
4596;DHT22;2310;49.978;8.742;2023-12-20T08:48:40;7.30;99.90
4596;DHT22;2310;49.978;8.742;2023-12-20T08:52:42;7.20;99.90
4596;DHT22;2310;49.978;8.742;2023-12-20T08:56:43;7.30;99.90
4596;DHT22;2310;49.978;8.742;2023-12-20T09:00:45;7.40;99.90
4596;DHT22;2310;49.978;8.742;2023-12-20T09:04:46;7.80;99.90
4596;DHT22;2310;49.978;8.742;2023-12-20T09:08:48;7.80;99.90
4596;DHT22;2310;49.978;8.742;2023-12-20T09:12:54;7.70;99.90
4596;DHT22;2310;49.978;8.742;2023-12-20T09:16:55;7.70;99.90
4596;DHT22;2310;49.978;8.742;2023-12-20T09:20:57;7.60;99.90
4596;DHT22;2310;49.978;8.742;2023-12-20T09:24:59;7.80;99.90
4596;DHT22;2310;49.978;8.742;2023-12-20T09:29:00;7.60;99.90
4596;DHT22;2310;49.978;8.742;2023-12-20T09:33:02;7.60;99.90
4596;DHT22;2310;49.978;8.742;2023-12-20T09:37:04;7.60;99.90
4596;DHT22;2310;49.978;8.742;2023-12-20T09:41:06;7.80;99.90
4596;DHT22;2310;49.978;8.742;2023-12-20T09:45:08;7.80;99.90
4596;DHT22;2310;49.978;8.742;2023-12-20T09:49:11;7.80;99.90
4596;DHT22;2310;49.978;8.742;2023-12-20T09:53:15;7.90;99.90
4596;DHT22;2310;49.978;8.742;2023-12-20T09:57:16;8.10;99.90
4596;DHT22;2310;49.978;8.742;2023-12-20T10:01:18;8.00;99.90
4596;DHT22;2310;49.978;8.742;2023-12-20T10:05:24;8.10;99.90
4596;DHT22;2310;49.978;8.742;2023-12-20T10:09:26;8.20;99.90
4596;DHT22;2310;49.978;8.742;2023-12-20T10:13:28;8.40;99.90
4596;DHT22;2310;49.978;8.742;2023-12-20T10:17:31;8.30;99.90
4596;DHT22;2310;49.978;8.742;2023-12-20T10:21:33;8.50;99.90
4596;DHT22;2310;49.978;8.742;2023-12-20T10:25:35;8.50;99.90
4596;DHT22;2310;49.978;8.742;2023-12-20T10:29:37;8.60;99.90
4596;DHT22;2310;49.978;8.742;2023-12-20T10:33:40;8.60;99.90
4596;DHT22;2310;49.978;8.742;2023-12-20T10:37:41;8.60;99.90
4596;DHT22;2310;49.978;8.742;2023-12-20T10:41:43;8.70;99.90
4596;DHT22;2310;49.978;8.742;2023-12-20T10:45:45;8.80;99.90
4596;DHT22;2310;49.978;8.742;2023-12-20T10:49:47;8.90;99.90
4596;DHT22;2310;49.978;8.742;2023-12-20T10:53:50;8.80;99.90
4596;DHT22;2310;49.978;8.742;2023-12-20T10:58:15;8.80;99.90
4596;DHT22;2310;49.978;8.742;2023-12-20T11:01:58;8.60;99.90
4596;DHT22;2310;49.978;8.742;2023-12-20T11:06:08;8.60;99.90
4596;DHT22;2310;49.978;8.742;2023-12-20T11:10:26;8.70;99.90
4596;DHT22;2310;49.978;8.742;2023-12-20T11:18:44;9.10;99.90
4596;DHT22;2310;49.978;8.742;2023-12-20T11:22:53;9.50;99.90
4596;DHT22;2310;49.978;8.742;2023-12-20T11:26:56;9.40;99.90
4596;DHT22;2310;49.978;8.742;2023-12-20T11:30:58;9.30;99.90
4596;DHT22;2310;49.978;8.742;2023-12-20T11:39:18;9.30;99.90
4596;DHT22;2310;49.978;8.742;2023-12-20T11:43:37;9.10;99.90
4596;DHT22;2310;49.978;8.742;2023-12-20T11:47:40;8.80;99.90
4596;DHT22;2310;49.978;8.742;2023-12-20T11:51:41;8.70;99.90
4596;DHT22;2310;49.978;8.742;2023-12-20T11:55:47;9.00;99.90
4596;DHT22;2310;49.978;8.742;2023-12-20T11:59:49;8.90;99.90
4596;DHT22;2310;49.978;8.742;2023-12-20T12:04:06;8.80;99.90
4596;DHT22;2310;49.978;8.742;2023-12-20T12:08:06;8.90;99.90
4596;DHT22;2310;49.978;8.742;2023-12-20T12:12:09;9.30;99.90
4596;DHT22;2310;49.978;8.742;2023-12-20T12:16:18;10.00;99.90
4596;DHT22;2310;49.978;8.742;2023-12-20T12:20:23;9.90;99.90
4596;DHT22;2310;49.978;8.742;2023-12-20T12:24:25;9.80;99.90
4596;DHT22;2310;49.978;8.742;2023-12-20T12:28:26;9.60;99.90
4596;DHT22;2310;49.978;8.742;2023-12-20T12:32:29;9.20;99.90
4596;DHT22;2310;49.978;8.742;2023-12-20T12:36:31;9.30;99.90
4596;DHT22;2310;49.978;8.742;2023-12-20T12:40:34;9.30;99.90
4596;DHT22;2310;49.978;8.742;2023-12-20T12:44:36;9.40;99.90
4596;DHT22;2310;49.978;8.742;2023-12-20T12:48:37;9.20;99.90
4596;DHT22;2310;49.978;8.742;2023-12-20T12:52:40;9.30;99.90
4596;DHT22;2310;49.978;8.742;2023-12-20T12:56:42;9.40;99.90
4596;DHT22;2310;49.978;8.742;2023-12-20T13:00:43;9.50;99.90
4596;DHT22;2310;49.978;8.742;2023-12-20T13:04:45;9.30;99.90
4596;DHT22;2310;49.978;8.742;2023-12-20T13:08:47;9.10;99.90
4596;DHT22;2310;49.978;8.742;2023-12-20T13:12:49;9.10;99.90
4596;DHT22;2310;49.978;8.742;2023-12-20T13:16:50;9.10;99.90
4596;DHT22;2310;49.978;8.742;2023-12-20T13:20:52;9.00;99.90
4596;DHT22;2310;49.978;8.742;2023-12-20T13:24:53;8.90;99.90
4596;DHT22;2310;49.978;8.742;2023-12-20T13:28:55;8.80;99.90
4596;DHT22;2310;49.978;8.742;2023-12-20T13:32:56;9.10;99.90
4596;DHT22;2310;49.978;8.742;2023-12-20T13:36:59;9.10;99.90
4596;DHT22;2310;49.978;8.742;2023-12-20T13:41:00;8.90;99.90
4596;DHT22;2310;49.978;8.742;2023-12-20T13:45:02;8.70;99.90
4596;DHT22;2310;49.978;8.742;2023-12-20T13:49:04;8.60;99.90
4596;DHT22;2310;49.978;8.742;2023-12-20T13:53:06;8.60;99.90
4596;DHT22;2310;49.978;8.742;2023-12-20T13:57:08;8.70;99.90
4596;DHT22;2310;49.978;8.742;2023-12-20T14:01:11;8.90;99.90
4596;DHT22;2310;49.978;8.742;2023-12-20T14:05:13;8.70;99.90
4596;DHT22;2310;49.978;8.742;2023-12-20T14:09:18;8.90;99.90
4596;DHT22;2310;49.978;8.742;2023-12-20T14:13:19;9.10;99.90
4596;DHT22;2310;49.978;8.742;2023-12-20T14:17:22;9.10;99.90
4596;DHT22;2310;49.978;8.742;2023-12-20T14:21:23;9.20;99.90
4596;DHT22;2310;49.978;8.742;2023-12-20T14:25:25;9.10;99.90
4596;DHT22;2310;49.978;8.742;2023-12-20T14:29:28;8.90;99.90
4596;DHT22;2310;49.978;8.742;2023-12-20T14:33:29;8.90;99.90
4596;DHT22;2310;49.978;8.742;2023-12-20T14:37:30;9.00;99.90
4596;DHT22;2310;49.978;8.742;2023-12-20T14:41:32;8.90;99.90
4596;DHT22;2310;49.978;8.742;2023-12-20T14:45:34;8.90;99.90
4596;DHT22;2310;49.978;8.742;2023-12-20T14:49:35;8.90;99.90
4596;DHT22;2310;49.978;8.742;2023-12-20T14:53:38;8.80;99.90
4596;DHT22;2310;49.978;8.742;2023-12-20T14:57:39;8.80;99.90
4596;DHT22;2310;49.978;8.742;2023-12-20T15:01:41;8.90;99.90
4596;DHT22;2310;49.978;8.742;2023-12-20T15:05:42;8.90;99.90
4596;DHT22;2310;49.978;8.742;2023-12-20T15:09:45;8.90;99.90
4596;DHT22;2310;49.978;8.742;2023-12-20T15:13:48;8.80;99.90
4596;DHT22;2310;49.978;8.742;2023-12-20T15:17:51;8.80;99.90
4596;DHT22;2310;49.978;8.742;2023-12-20T15:21:53;8.70;99.90
4596;DHT22;2310;49.978;8.742;2023-12-20T15:25:54;8.80;99.90
4596;DHT22;2310;49.978;8.742;2023-12-20T15:29:57;8.60;99.90
4596;DHT22;2310;49.978;8.742;2023-12-20T15:33:59;8.70;99.90
4596;DHT22;2310;49.978;8.742;2023-12-20T15:38:00;8.60;99.90
4596;DHT22;2310;49.978;8.742;2023-12-20T15:42:02;8.50;99.90
4596;DHT22;2310;49.978;8.742;2023-12-20T15:46:04;8.50;99.90
4596;DHT22;2310;49.978;8.742;2023-12-20T15:50:07;8.70;99.90
4596;DHT22;2310;49.978;8.742;2023-12-20T15:54:10;8.50;99.90
4596;DHT22;2310;49.978;8.742;2023-12-20T15:58:11;8.50;99.90
4596;DHT22;2310;49.978;8.742;2023-12-20T16:02:12;8.60;99.90
4596;DHT22;2310;49.978;8.742;2023-12-20T16:06:14;8.70;99.90
4596;DHT22;2310;49.978;8.742;2023-12-20T16:10:17;8.80;99.90
4596;DHT22;2310;49.978;8.742;2023-12-20T16:14:18;8.80;99.90
4596;DHT22;2310;49.978;8.742;2023-12-20T16:18:21;8.90;99.90
4596;DHT22;2310;49.978;8.742;2023-12-20T16:22:22;8.90;99.90
4596;DHT22;2310;49.978;8.742;2023-12-20T16:26:24;8.90;99.90
4596;DHT22;2310;49.978;8.742;2023-12-20T16:30:25;8.70;99.90
4596;DHT22;2310;49.978;8.742;2023-12-20T16:34:27;8.70;99.90
4596;DHT22;2310;49.978;8.742;2023-12-20T16:38:28;8.80;99.90
4596;DHT22;2310;49.978;8.742;2023-12-20T16:42:30;8.60;99.90
4596;DHT22;2310;49.978;8.742;2023-12-20T16:46:31;8.60;99.90
4596;DHT22;2310;49.978;8.742;2023-12-20T16:50:33;8.60;99.90
4596;DHT22;2310;49.978;8.742;2023-12-20T16:54:34;8.60;99.90
4596;DHT22;2310;49.978;8.742;2023-12-20T16:58:35;8.50;99.90
4596;DHT22;2310;49.978;8.742;2023-12-20T17:02:37;8.60;99.90
4596;DHT22;2310;49.978;8.742;2023-12-20T17:06:38;8.60;99.90
4596;DHT22;2310;49.978;8.742;2023-12-20T17:10:40;8.50;99.90
4596;DHT22;2310;49.978;8.742;2023-12-20T17:14:42;8.60;99.90
4596;DHT22;2310;49.978;8.742;2023-12-20T17:18:44;8.50;99.90
4596;DHT22;2310;49.978;8.742;2023-12-20T17:22:50;8.50;99.90
4596;DHT22;2310;49.978;8.742;2023-12-20T17:26:51;8.40;99.90
4596;DHT22;2310;49.978;8.742;2023-12-20T17:30:52;8.60;99.90
4596;DHT22;2310;49.978;8.742;2023-12-20T17:34:55;8.40;99.90
4596;DHT22;2310;49.978;8.742;2023-12-20T17:38:56;8.40;99.90
4596;DHT22;2310;49.978;8.742;2023-12-20T17:42:57;8.30;99.90
4596;DHT22;2310;49.978;8.742;2023-12-20T17:46:59;8.30;99.90
4596;DHT22;2310;49.978;8.742;2023-12-20T17:51:01;8.30;99.90
4596;DHT22;2310;49.978;8.742;2023-12-20T17:55:03;8.20;99.90
4596;DHT22;2310;49.978;8.742;2023-12-20T17:59:04;8.30;99.90
4596;DHT22;2310;49.978;8.742;2023-12-20T18:03:06;8.30;99.90
4596;DHT22;2310;49.978;8.742;2023-12-20T18:07:07;8.20;99.90
4596;DHT22;2310;49.978;8.742;2023-12-20T18:11:09;8.30;99.90
4596;DHT22;2310;49.978;8.742;2023-12-20T18:15:12;8.40;99.90
4596;DHT22;2310;49.978;8.742;2023-12-20T18:19:13;8.40;99.90
4596;DHT22;2310;49.978;8.742;2023-12-20T18:23:16;8.50;99.90
4596;DHT22;2310;49.978;8.742;2023-12-20T18:27:17;8.50;99.90
4596;DHT22;2310;49.978;8.742;2023-12-20T18:31:19;8.40;99.90
4596;DHT22;2310;49.978;8.742;2023-12-20T18:35:22;8.40;99.90
4596;DHT22;2310;49.978;8.742;2023-12-20T18:39:23;8.40;99.90
4596;DHT22;2310;49.978;8.742;2023-12-20T18:43:25;8.50;99.90
4596;DHT22;2310;49.978;8.742;2023-12-20T18:47:27;8.50;99.90
4596;DHT22;2310;49.978;8.742;2023-12-20T18:51:28;8.30;99.90
4596;DHT22;2310;49.978;8.742;2023-12-20T18:55:29;8.30;99.90
4596;DHT22;2310;49.978;8.742;2023-12-20T18:59:31;8.50;99.90
4596;DHT22;2310;49.978;8.742;2023-12-20T19:03:32;8.50;99.90
4596;DHT22;2310;49.978;8.742;2023-12-20T19:07:33;8.40;99.90
4596;DHT22;2310;49.978;8.742;2023-12-20T19:11:35;8.40;99.90
4596;DHT22;2310;49.978;8.742;2023-12-20T19:15:37;8.40;99.90
4596;DHT22;2310;49.978;8.742;2023-12-20T19:19:38;8.40;99.90
4596;DHT22;2310;49.978;8.742;2023-12-20T19:23:40;8.50;99.90
4596;DHT22;2310;49.978;8.742;2023-12-20T19:27:43;8.60;99.90
4596;DHT22;2310;49.978;8.742;2023-12-20T19:31:45;8.60;99.90
4596;DHT22;2310;49.978;8.742;2023-12-20T19:35:49;8.70;99.90
4596;DHT22;2310;49.978;8.742;2023-12-20T19:39:51;8.50;99.90
4596;DHT22;2310;49.978;8.742;2023-12-20T19:43:52;8.50;99.90
4596;DHT22;2310;49.978;8.742;2023-12-20T19:47:54;8.60;99.90
4596;DHT22;2310;49.978;8.742;2023-12-20T19:51:55;8.70;99.90
4596;DHT22;2310;49.978;8.742;2023-12-20T19:55:57;8.70;99.90
4596;DHT22;2310;49.978;8.742;2023-12-20T19:59:58;8.60;99.90
4596;DHT22;2310;49.978;8.742;2023-12-20T20:04:00;8.60;99.90
4596;DHT22;2310;49.978;8.742;2023-12-20T20:08:03;8.40;99.90
4596;DHT22;2310;49.978;8.742;2023-12-20T20:12:05;8.30;99.90
4596;DHT22;2310;49.978;8.742;2023-12-20T20:16:06;8.40;99.90
4596;DHT22;2310;49.978;8.742;2023-12-20T20:20:08;8.50;99.90
4596;DHT22;2310;49.978;8.742;2023-12-20T20:24:10;8.50;99.90
4596;DHT22;2310;49.978;8.742;2023-12-20T20:28:11;8.50;99.90
4596;DHT22;2310;49.978;8.742;2023-12-20T20:32:14;8.40;99.90
4596;DHT22;2310;49.978;8.742;2023-12-20T20:36:15;8.40;99.90
4596;DHT22;2310;49.978;8.742;2023-12-20T20:40:17;8.40;99.90
4596;DHT22;2310;49.978;8.742;2023-12-20T20:44:19;8.40;99.90
4596;DHT22;2310;49.978;8.742;2023-12-20T20:48:21;8.40;99.90
4596;DHT22;2310;49.978;8.742;2023-12-20T20:52:24;8.30;99.90
4596;DHT22;2310;49.978;8.742;2023-12-20T20:56:25;8.40;99.90
4596;DHT22;2310;49.978;8.742;2023-12-20T21:00:27;8.30;99.90
4596;DHT22;2310;49.978;8.742;2023-12-20T21:04:29;8.50;99.90
4596;DHT22;2310;49.978;8.742;2023-12-20T21:08:32;8.50;99.90
4596;DHT22;2310;49.978;8.742;2023-12-20T21:12:33;8.50;99.90
4596;DHT22;2310;49.978;8.742;2023-12-20T21:16:36;8.40;99.90
4596;DHT22;2310;49.978;8.742;2023-12-20T21:20:37;8.40;99.90
4596;DHT22;2310;49.978;8.742;2023-12-20T21:24:39;8.30;99.90
4596;DHT22;2310;49.978;8.742;2023-12-20T21:28:41;8.40;99.90
4596;DHT22;2310;49.978;8.742;2023-12-20T21:32:42;8.30;99.90
4596;DHT22;2310;49.978;8.742;2023-12-20T21:36:46;8.30;99.90
4596;DHT22;2310;49.978;8.742;2023-12-20T21:40:47;8.30;99.90
4596;DHT22;2310;49.978;8.742;2023-12-20T21:44:49;8.40;99.90
4596;DHT22;2310;49.978;8.742;2023-12-20T21:48:50;8.40;99.90
4596;DHT22;2310;49.978;8.742;2023-12-20T21:52:52;8.40;99.90
4596;DHT22;2310;49.978;8.742;2023-12-20T21:56:53;8.40;99.90
4596;DHT22;2310;49.978;8.742;2023-12-20T22:00:56;8.50;99.90
4596;DHT22;2310;49.978;8.742;2023-12-20T22:04:58;8.50;99.90
4596;DHT22;2310;49.978;8.742;2023-12-20T22:09:00;8.40;99.90
4596;DHT22;2310;49.978;8.742;2023-12-20T22:13:01;8.40;99.90
4596;DHT22;2310;49.978;8.742;2023-12-20T22:17:03;8.30;99.90
4596;DHT22;2310;49.978;8.742;2023-12-20T22:21:04;8.40;99.90
4596;DHT22;2310;49.978;8.742;2023-12-20T22:25:06;8.50;99.90
4596;DHT22;2310;49.978;8.742;2023-12-20T22:29:08;8.50;99.90
4596;DHT22;2310;49.978;8.742;2023-12-20T22:33:10;8.40;99.90
4596;DHT22;2310;49.978;8.742;2023-12-20T22:37:13;8.40;99.90
4596;DHT22;2310;49.978;8.742;2023-12-20T22:41:15;8.40;99.90
4596;DHT22;2310;49.978;8.742;2023-12-20T22:45:16;8.30;99.90
4596;DHT22;2310;49.978;8.742;2023-12-20T22:49:18;8.40;99.90
4596;DHT22;2310;49.978;8.742;2023-12-20T22:53:20;8.30;99.90
4596;DHT22;2310;49.978;8.742;2023-12-20T22:57:21;8.40;99.90
4596;DHT22;2310;49.978;8.742;2023-12-20T23:01:22;8.20;99.90
4596;DHT22;2310;49.978;8.742;2023-12-20T23:05:24;8.20;99.90
4596;DHT22;2310;49.978;8.742;2023-12-20T23:09:25;8.30;99.90
4596;DHT22;2310;49.978;8.742;2023-12-20T23:13:27;8.30;99.90
4596;DHT22;2310;49.978;8.742;2023-12-20T23:17:28;8.40;99.90
4596;DHT22;2310;49.978;8.742;2023-12-20T23:21:29;8.40;99.90
4596;DHT22;2310;49.978;8.742;2023-12-20T23:25:31;8.20;99.90
4596;DHT22;2310;49.978;8.742;2023-12-20T23:29:34;8.10;99.90
4596;DHT22;2310;49.978;8.742;2023-12-20T23:33:35;8.00;99.90
4596;DHT22;2310;49.978;8.742;2023-12-20T23:37:37;7.90;99.90
4596;DHT22;2310;49.978;8.742;2023-12-20T23:41:38;7.90;99.90
4596;DHT22;2310;49.978;8.742;2023-12-20T23:45:40;8.00;99.90
4596;DHT22;2310;49.978;8.742;2023-12-20T23:49:41;8.10;99.90
4596;DHT22;2310;49.978;8.742;2023-12-20T23:53:43;8.10;99.90
4596;DHT22;2310;49.978;8.742;2023-12-20T23:57:44;8.20;99.90
